sensor_id;sensor_type;location;lat;lon;timestamp;P1;durP1;ratioP1;P2;durP2;ratioP2
61938;SDS011;47897;50.322;18.892;2022-08-21T00:00:58;105.60;;;46.10;;
61938;SDS011;47897;50.322;18.892;2022-08-21T00:03:28;108.90;;;48.70;;
61938;SDS011;47897;50.322;18.892;2022-08-21T00:05:55;112.60;;;47.10;;
61938;SDS011;47897;50.322;18.892;2022-08-21T00:08:21;113.40;;;48.50;;
61938;SDS011;47897;50.322;18.892;2022-08-21T00:10:49;109.60;;;48.00;;
61938;SDS011;47897;50.322;18.892;2022-08-21T00:13:17;110.20;;;45.20;;
61938;SDS011;47897;50.322;18.892;2022-08-21T00:15:46;101.50;;;43.00;;
61938;SDS011;47897;50.322;18.892;2022-08-21T00:18:15;101.80;;;43.10;;
61938;SDS011;47897;50.322;18.892;2022-08-21T00:20:43;105.60;;;42.90;;
61938;SDS011;47897;50.322;18.892;2022-08-21T00:23:12;95.10;;;43.00;;
61938;SDS011;47897;50.322;18.892;2022-08-21T00:25:40;100.90;;;41.80;;
61938;SDS011;47897;50.322;18.892;2022-08-21T00:28:09;104.60;;;42.10;;
61938;SDS011;47897;50.322;18.892;2022-08-21T00:30:37;87.00;;;41.10;;
61938;SDS011;47897;50.322;18.892;2022-08-21T00:33:05;91.30;;;39.80;;
61938;SDS011;47897;50.322;18.892;2022-08-21T00:35:35;93.10;;;43.20;;
61938;SDS011;47897;50.322;18.892;2022-08-21T00:38:04;91.90;;;41.70;;
61938;SDS011;47897;50.322;18.892;2022-08-21T00:40:56;92.70;;;40.80;;
61938;SDS011;47897;50.322;18.892;2022-08-21T00:43:25;90.60;;;38.40;;
61938;SDS011;47897;50.322;18.892;2022-08-21T00:45:54;92.80;;;38.50;;
61938;SDS011;47897;50.322;18.892;2022-08-21T00:48:22;83.40;;;37.50;;
61938;SDS011;47897;50.322;18.892;2022-08-21T00:50:56;73.70;;;32.00;;
61938;SDS011;47897;50.322;18.892;2022-08-21T00:53:26;60.80;;;30.50;;
61938;SDS011;47897;50.322;18.892;2022-08-21T00:55:54;61.20;;;31.00;;
61938;SDS011;47897;50.322;18.892;2022-08-21T00:58:23;77.60;;;36.40;;
61938;SDS011;47897;50.322;18.892;2022-08-21T01:00:54;75.70;;;35.00;;
61938;SDS011;47897;50.322;18.892;2022-08-21T01:03:22;74.10;;;34.60;;
61938;SDS011;47897;50.322;18.892;2022-08-21T01:05:52;81.70;;;37.70;;
61938;SDS011;47897;50.322;18.892;2022-08-21T01:08:19;72.80;;;33.50;;
61938;SDS011;47897;50.322;18.892;2022-08-21T01:10:48;72.90;;;35.50;;
61938;SDS011;47897;50.322;18.892;2022-08-21T01:13:17;73.50;;;34.90;;
61938;SDS011;47897;50.322;18.892;2022-08-21T01:15:46;72.00;;;34.10;;
61938;SDS011;47897;50.322;18.892;2022-08-21T01:18:15;69.30;;;33.50;;
61938;SDS011;47897;50.322;18.892;2022-08-21T01:20:45;72.70;;;33.50;;
61938;SDS011;47897;50.322;18.892;2022-08-21T01:23:34;63.80;;;32.20;;
61938;SDS011;47897;50.322;18.892;2022-08-21T01:26:04;72.90;;;31.50;;
61938;SDS011;47897;50.322;18.892;2022-08-21T01:28:33;62.90;;;30.30;;
61938;SDS011;47897;50.322;18.892;2022-08-21T01:31:06;68.40;;;30.80;;
61938;SDS011;47897;50.322;18.892;2022-08-21T01:33:36;58.80;;;29.80;;
61938;SDS011;47897;50.322;18.892;2022-08-21T01:36:03;74.70;;;31.90;;
61938;SDS011;47897;50.322;18.892;2022-08-21T01:38:30;60.70;;;31.50;;
61938;SDS011;47897;50.322;18.892;2022-08-21T01:40:57;62.50;;;29.30;;
61938;SDS011;47897;50.322;18.892;2022-08-21T01:43:24;62.10;;;28.80;;
61938;SDS011;47897;50.322;18.892;2022-08-21T01:45:51;59.80;;;27.70;;
61938;SDS011;47897;50.322;18.892;2022-08-21T01:48:18;54.60;;;25.90;;
61938;SDS011;47897;50.322;18.892;2022-08-21T01:50:45;58.90;;;26.60;;
61938;SDS011;47897;50.322;18.892;2022-08-21T01:53:12;55.70;;;27.00;;
61938;SDS011;47897;50.322;18.892;2022-08-21T01:55:42;54.50;;;24.70;;
61938;SDS011;47897;50.322;18.892;2022-08-21T01:58:10;52.80;;;24.70;;
61938;SDS011;47897;50.322;18.892;2022-08-21T02:00:37;60.40;;;24.90;;
61938;SDS011;47897;50.322;18.892;2022-08-21T02:03:04;55.20;;;25.70;;
61938;SDS011;47897;50.322;18.892;2022-08-21T02:05:32;55.00;;;23.90;;
61938;SDS011;47897;50.322;18.892;2022-08-21T02:07:59;52.20;;;25.10;;
61938;SDS011;47897;50.322;18.892;2022-08-21T02:10:27;58.40;;;25.10;;
61938;SDS011;47897;50.322;18.892;2022-08-21T02:12:56;46.00;;;24.10;;
61938;SDS011;47897;50.322;18.892;2022-08-21T02:15:23;53.10;;;25.40;;
61938;SDS011;47897;50.322;18.892;2022-08-21T02:17:52;50.80;;;24.60;;
61938;SDS011;47897;50.322;18.892;2022-08-21T02:20:30;55.70;;;26.50;;
61938;SDS011;47897;50.322;18.892;2022-08-21T02:23:03;62.40;;;28.30;;
61938;SDS011;47897;50.322;18.892;2022-08-21T02:25:32;66.00;;;29.20;;
61938;SDS011;47897;50.322;18.892;2022-08-21T02:27:59;71.00;;;31.40;;
61938;SDS011;47897;50.322;18.892;2022-08-21T02:30:33;75.20;;;32.40;;
61938;SDS011;47897;50.322;18.892;2022-08-21T02:33:04;85.20;;;37.20;;
61938;SDS011;47897;50.322;18.892;2022-08-21T02:35:32;87.60;;;36.70;;
61938;SDS011;47897;50.322;18.892;2022-08-21T02:38:03;90.60;;;39.00;;
61938;SDS011;47897;50.322;18.892;2022-08-21T02:40:33;89.20;;;37.50;;
61938;SDS011;47897;50.322;18.892;2022-08-21T02:43:02;82.50;;;35.60;;
61938;SDS011;47897;50.322;18.892;2022-08-21T02:45:31;80.80;;;35.10;;
61938;SDS011;47897;50.322;18.892;2022-08-21T02:48:00;76.80;;;31.70;;
61938;SDS011;47897;50.322;18.892;2022-08-21T02:52:58;65.70;;;28.70;;
61938;SDS011;47897;50.322;18.892;2022-08-21T02:55:27;72.50;;;30.30;;
61938;SDS011;47897;50.322;18.892;2022-08-21T02:57:57;74.20;;;31.20;;
61938;SDS011;47897;50.322;18.892;2022-08-21T03:00:26;75.40;;;31.90;;
61938;SDS011;47897;50.322;18.892;2022-08-21T03:02:55;65.40;;;27.30;;
61938;SDS011;47897;50.322;18.892;2022-08-21T03:05:24;72.20;;;30.70;;
61938;SDS011;47897;50.322;18.892;2022-08-21T03:07:51;68.60;;;30.60;;
61938;SDS011;47897;50.322;18.892;2022-08-21T03:10:20;80.40;;;32.00;;
61938;SDS011;47897;50.322;18.892;2022-08-21T03:12:48;68.40;;;30.70;;
61938;SDS011;47897;50.322;18.892;2022-08-21T03:15:16;69.30;;;30.80;;
61938;SDS011;47897;50.322;18.892;2022-08-21T03:17:45;79.20;;;32.10;;
61938;SDS011;47897;50.322;18.892;2022-08-21T03:20:14;81.40;;;32.70;;
61938;SDS011;47897;50.322;18.892;2022-08-21T03:22:43;79.10;;;32.30;;
61938;SDS011;47897;50.322;18.892;2022-08-21T03:25:09;80.00;;;32.60;;
61938;SDS011;47897;50.322;18.892;2022-08-21T03:27:37;76.90;;;33.20;;
61938;SDS011;47897;50.322;18.892;2022-08-21T03:30:04;86.30;;;35.60;;
61938;SDS011;47897;50.322;18.892;2022-08-21T03:32:33;81.30;;;33.20;;
61938;SDS011;47897;50.322;18.892;2022-08-21T03:35:02;81.80;;;32.10;;
61938;SDS011;47897;50.322;18.892;2022-08-21T03:37:30;84.00;;;33.70;;
61938;SDS011;47897;50.322;18.892;2022-08-21T03:39:58;87.60;;;34.30;;
61938;SDS011;47897;50.322;18.892;2022-08-21T03:42:25;89.60;;;36.00;;
61938;SDS011;47897;50.322;18.892;2022-08-21T03:44:52;81.30;;;33.50;;
61938;SDS011;47897;50.322;18.892;2022-08-21T03:47:19;92.70;;;36.00;;
61938;SDS011;47897;50.322;18.892;2022-08-21T03:49:46;91.40;;;35.90;;
61938;SDS011;47897;50.322;18.892;2022-08-21T03:52:13;87.60;;;35.30;;
61938;SDS011;47897;50.322;18.892;2022-08-21T03:54:40;98.30;;;36.20;;
61938;SDS011;47897;50.322;18.892;2022-08-21T03:57:08;99.80;;;38.00;;
61938;SDS011;47897;50.322;18.892;2022-08-21T03:59:36;99.00;;;37.60;;
61938;SDS011;47897;50.322;18.892;2022-08-21T04:02:04;93.70;;;35.80;;
61938;SDS011;47897;50.322;18.892;2022-08-21T04:04:33;108.20;;;39.20;;
61938;SDS011;47897;50.322;18.892;2022-08-21T04:07:01;99.20;;;38.40;;
61938;SDS011;47897;50.322;18.892;2022-08-21T04:09:28;98.30;;;39.80;;
61938;SDS011;47897;50.322;18.892;2022-08-21T04:11:56;96.30;;;38.20;;
61938;SDS011;47897;50.322;18.892;2022-08-21T04:14:24;104.10;;;38.30;;
61938;SDS011;47897;50.322;18.892;2022-08-21T04:16:51;112.30;;;40.30;;
61938;SDS011;47897;50.322;18.892;2022-08-21T04:19:18;102.60;;;38.10;;
61938;SDS011;47897;50.322;18.892;2022-08-21T04:21:46;103.80;;;36.60;;
61938;SDS011;47897;50.322;18.892;2022-08-21T04:24:12;99.10;;;37.40;;
61938;SDS011;47897;50.322;18.892;2022-08-21T04:26:39;102.20;;;39.40;;
61938;SDS011;47897;50.322;18.892;2022-08-21T04:29:07;98.40;;;37.90;;
61938;SDS011;47897;50.322;18.892;2022-08-21T04:31:34;108.80;;;40.00;;
61938;SDS011;47897;50.322;18.892;2022-08-21T04:34:05;107.80;;;38.90;;
61938;SDS011;47897;50.322;18.892;2022-08-21T04:36:32;93.60;;;36.90;;
61938;SDS011;47897;50.322;18.892;2022-08-21T04:39:00;101.90;;;39.20;;
61938;SDS011;47897;50.322;18.892;2022-08-21T04:41:27;97.80;;;38.00;;
61938;SDS011;47897;50.322;18.892;2022-08-21T04:43:54;97.40;;;37.90;;
61938;SDS011;47897;50.322;18.892;2022-08-21T04:46:22;112.80;;;41.10;;
61938;SDS011;47897;50.322;18.892;2022-08-21T04:48:49;91.30;;;37.80;;
61938;SDS011;47897;50.322;18.892;2022-08-21T04:51:17;110.30;;;39.40;;
61938;SDS011;47897;50.322;18.892;2022-08-21T04:53:50;93.70;;;38.00;;
61938;SDS011;47897;50.322;18.892;2022-08-21T04:56:31;95.10;;;37.30;;
61938;SDS011;47897;50.322;18.892;2022-08-21T04:59:05;100.90;;;40.60;;
61938;SDS011;47897;50.322;18.892;2022-08-21T05:01:37;91.70;;;37.70;;
61938;SDS011;47897;50.322;18.892;2022-08-21T05:04:08;100.30;;;38.00;;
61938;SDS011;47897;50.322;18.892;2022-08-21T05:06:38;100.00;;;39.70;;
61938;SDS011;47897;50.322;18.892;2022-08-21T05:09:09;97.20;;;39.50;;
61938;SDS011;47897;50.322;18.892;2022-08-21T05:11:41;98.60;;;38.70;;
61938;SDS011;47897;50.322;18.892;2022-08-21T05:14:10;106.30;;;41.80;;
61938;SDS011;47897;50.322;18.892;2022-08-21T05:16:38;104.10;;;40.00;;
61938;SDS011;47897;50.322;18.892;2022-08-21T05:19:05;101.30;;;38.80;;
61938;SDS011;47897;50.322;18.892;2022-08-21T05:21:33;96.80;;;41.00;;
61938;SDS011;47897;50.322;18.892;2022-08-21T05:24:01;108.20;;;39.90;;
61938;SDS011;47897;50.322;18.892;2022-08-21T05:26:28;94.60;;;38.10;;
61938;SDS011;47897;50.322;18.892;2022-08-21T05:28:56;107.10;;;39.60;;
61938;SDS011;47897;50.322;18.892;2022-08-21T05:31:23;108.40;;;39.10;;
61938;SDS011;47897;50.322;18.892;2022-08-21T05:33:51;107.30;;;38.40;;
61938;SDS011;47897;50.322;18.892;2022-08-21T05:36:18;106.60;;;40.60;;
61938;SDS011;47897;50.322;18.892;2022-08-21T05:38:45;112.10;;;41.40;;
61938;SDS011;47897;50.322;18.892;2022-08-21T05:41:13;109.80;;;40.80;;
61938;SDS011;47897;50.322;18.892;2022-08-21T05:43:40;101.20;;;39.30;;
61938;SDS011;47897;50.322;18.892;2022-08-21T05:46:07;107.50;;;38.80;;
61938;SDS011;47897;50.322;18.892;2022-08-21T05:48:35;106.60;;;39.60;;
61938;SDS011;47897;50.322;18.892;2022-08-21T05:51:07;117.70;;;44.50;;
61938;SDS011;47897;50.322;18.892;2022-08-21T05:53:36;114.80;;;42.20;;
61938;SDS011;47897;50.322;18.892;2022-08-21T05:56:05;115.00;;;43.10;;
61938;SDS011;47897;50.322;18.892;2022-08-21T05:58:33;114.00;;;44.90;;
61938;SDS011;47897;50.322;18.892;2022-08-21T06:01:01;117.90;;;42.50;;
61938;SDS011;47897;50.322;18.892;2022-08-21T06:03:30;123.20;;;43.70;;
61938;SDS011;47897;50.322;18.892;2022-08-21T06:08:27;108.80;;;38.60;;
61938;SDS011;47897;50.322;18.892;2022-08-21T06:10:55;115.50;;;40.50;;
61938;SDS011;47897;50.322;18.892;2022-08-21T06:13:25;106.90;;;41.30;;
61938;SDS011;47897;50.322;18.892;2022-08-21T06:16:03;67.30;;;28.20;;
61938;SDS011;47897;50.322;18.892;2022-08-21T06:18:35;58.50;;;26.60;;
61938;SDS011;47897;50.322;18.892;2022-08-21T06:21:03;41.00;;;19.10;;
61938;SDS011;47897;50.322;18.892;2022-08-21T06:23:30;35.10;;;17.50;;
61938;SDS011;47897;50.322;18.892;2022-08-21T06:25:58;34.70;;;16.30;;
61938;SDS011;47897;50.322;18.892;2022-08-21T06:28:27;35.90;;;17.20;;
61938;SDS011;47897;50.322;18.892;2022-08-21T06:30:55;29.60;;;13.30;;
61938;SDS011;47897;50.322;18.892;2022-08-21T06:33:22;26.30;;;13.00;;
61938;SDS011;47897;50.322;18.892;2022-08-21T06:35:50;27.40;;;12.30;;
61938;SDS011;47897;50.322;18.892;2022-08-21T06:38:17;20.00;;;8.70;;
61938;SDS011;47897;50.322;18.892;2022-08-21T06:40:44;13.70;;;7.40;;
61938;SDS011;47897;50.322;18.892;2022-08-21T06:43:14;10.10;;;5.10;;
61938;SDS011;47897;50.322;18.892;2022-08-21T06:45:43;8.60;;;3.80;;
61938;SDS011;47897;50.322;18.892;2022-08-21T06:48:11;10.60;;;4.30;;
61938;SDS011;47897;50.322;18.892;2022-08-21T06:50:39;6.10;;;3.00;;
61938;SDS011;47897;50.322;18.892;2022-08-21T06:53:11;6.70;;;3.00;;
61938;SDS011;47897;50.322;18.892;2022-08-21T06:55:42;3.40;;;1.50;;
61938;SDS011;47897;50.322;18.892;2022-08-21T06:58:09;4.60;;;2.20;;
61938;SDS011;47897;50.322;18.892;2022-08-21T07:00:42;4.40;;;2.00;;
61938;SDS011;47897;50.322;18.892;2022-08-21T07:05:50;3.70;;;1.70;;
61938;SDS011;47897;50.322;18.892;2022-08-21T07:08:17;4.20;;;1.60;;
61938;SDS011;47897;50.322;18.892;2022-08-21T07:10:45;5.00;;;1.60;;
61938;SDS011;47897;50.322;18.892;2022-08-21T07:13:13;5.30;;;1.50;;
61938;SDS011;47897;50.322;18.892;2022-08-21T07:15:40;3.30;;;1.30;;
61938;SDS011;47897;50.322;18.892;2022-08-21T07:18:07;5.20;;;1.60;;
61938;SDS011;47897;50.322;18.892;2022-08-21T07:20:35;4.40;;;1.50;;
61938;SDS011;47897;50.322;18.892;2022-08-21T07:23:04;4.20;;;1.30;;
61938;SDS011;47897;50.322;18.892;2022-08-21T07:25:34;4.30;;;1.60;;
61938;SDS011;47897;50.322;18.892;2022-08-21T07:28:01;9.40;;;4.60;;
61938;SDS011;47897;50.322;18.892;2022-08-21T07:30:28;7.40;;;4.00;;
61938;SDS011;47897;50.322;18.892;2022-08-21T07:32:57;17.10;;;9.40;;
61938;SDS011;47897;50.322;18.892;2022-08-21T07:35:24;32.70;;;18.20;;
61938;SDS011;47897;50.322;18.892;2022-08-21T07:37:51;45.00;;;19.50;;
61938;SDS011;47897;50.322;18.892;2022-08-21T07:40:19;51.50;;;20.80;;
61938;SDS011;47897;50.322;18.892;2022-08-21T07:42:46;67.80;;;28.70;;
61938;SDS011;47897;50.322;18.892;2022-08-21T07:45:16;69.60;;;27.50;;
61938;SDS011;47897;50.322;18.892;2022-08-21T07:47:43;63.40;;;26.50;;
61938;SDS011;47897;50.322;18.892;2022-08-21T07:50:11;49.20;;;25.20;;
61938;SDS011;47897;50.322;18.892;2022-08-21T07:52:39;33.40;;;16.70;;
61938;SDS011;47897;50.322;18.892;2022-08-21T07:55:09;31.10;;;15.80;;
61938;SDS011;47897;50.322;18.892;2022-08-21T07:57:37;52.70;;;26.60;;
61938;SDS011;47897;50.322;18.892;2022-08-21T08:00:06;82.10;;;42.20;;
61938;SDS011;47897;50.322;18.892;2022-08-21T08:02:35;58.30;;;30.20;;
61938;SDS011;47897;50.322;18.892;2022-08-21T08:05:06;42.00;;;25.30;;
61938;SDS011;47897;50.322;18.892;2022-08-21T08:07:35;41.90;;;21.00;;
61938;SDS011;47897;50.322;18.892;2022-08-21T08:10:03;39.90;;;17.60;;
61938;SDS011;47897;50.322;18.892;2022-08-21T08:12:37;36.00;;;14.70;;
61938;SDS011;47897;50.322;18.892;2022-08-21T08:15:08;22.80;;;10.20;;
61938;SDS011;47897;50.322;18.892;2022-08-21T08:17:38;19.70;;;9.30;;
61938;SDS011;47897;50.322;18.892;2022-08-21T08:20:06;13.70;;;7.10;;
61938;SDS011;47897;50.322;18.892;2022-08-21T08:22:35;6.60;;;3.40;;
61938;SDS011;47897;50.322;18.892;2022-08-21T08:25:04;9.70;;;3.60;;
61938;SDS011;47897;50.322;18.892;2022-08-21T08:27:32;7.60;;;3.70;;
61938;SDS011;47897;50.322;18.892;2022-08-21T08:29:59;10.90;;;5.40;;
61938;SDS011;47897;50.322;18.892;2022-08-21T08:32:26;5.60;;;1.70;;
61938;SDS011;47897;50.322;18.892;2022-08-21T08:34:53;5.70;;;3.10;;
61938;SDS011;47897;50.322;18.892;2022-08-21T08:37:20;5.60;;;1.30;;
61938;SDS011;47897;50.322;18.892;2022-08-21T08:39:47;3.30;;;1.10;;
61938;SDS011;47897;50.322;18.892;2022-08-21T08:42:24;5.10;;;1.30;;
61938;SDS011;47897;50.322;18.892;2022-08-21T08:44:55;3.80;;;1.20;;
61938;SDS011;47897;50.322;18.892;2022-08-21T08:47:32;3.30;;;1.70;;
61938;SDS011;47897;50.322;18.892;2022-08-21T08:50:06;4.40;;;1.60;;
61938;SDS011;47897;50.322;18.892;2022-08-21T08:52:41;8.80;;;3.80;;
61938;SDS011;47897;50.322;18.892;2022-08-21T08:55:18;3.90;;;1.50;;
61938;SDS011;47897;50.322;18.892;2022-08-21T08:58:06;3.40;;;1.70;;
61938;SDS011;47897;50.322;18.892;2022-08-21T09:00:38;3.90;;;2.00;;
61938;SDS011;47897;50.322;18.892;2022-08-21T09:03:05;7.20;;;2.30;;
61938;SDS011;47897;50.322;18.892;2022-08-21T09:05:55;4.10;;;1.60;;
61938;SDS011;47897;50.322;18.892;2022-08-21T09:27:34;13.00;;;6.50;;
61938;SDS011;47897;50.322;18.892;2022-08-21T09:30:03;10.50;;;5.20;;
61938;SDS011;47897;50.322;18.892;2022-08-21T09:32:34;7.30;;;3.70;;
61938;SDS011;47897;50.322;18.892;2022-08-21T09:40:35;4.70;;;2.10;;
61938;SDS011;47897;50.322;18.892;2022-08-21T09:45:38;6.00;;;2.70;;
61938;SDS011;47897;50.322;18.892;2022-08-21T09:48:29;5.90;;;2.70;;
61938;SDS011;47897;50.322;18.892;2022-08-21T09:51:12;5.70;;;2.80;;
61938;SDS011;47897;50.322;18.892;2022-08-21T09:53:46;5.40;;;2.40;;
61938;SDS011;47897;50.322;18.892;2022-08-21T09:56:19;3.90;;;2.30;;
61938;SDS011;47897;50.322;18.892;2022-08-21T09:59:27;4.00;;;1.90;;
61938;SDS011;47897;50.322;18.892;2022-08-21T10:02:00;4.50;;;1.90;;
61938;SDS011;47897;50.322;18.892;2022-08-21T10:04:32;5.10;;;1.70;;
61938;SDS011;47897;50.322;18.892;2022-08-21T10:09:39;3.90;;;2.00;;
61938;SDS011;47897;50.322;18.892;2022-08-21T10:15:09;4.30;;;2.00;;
61938;SDS011;47897;50.322;18.892;2022-08-21T10:25:56;4.40;;;2.20;;
61938;SDS011;47897;50.322;18.892;2022-08-21T10:36:39;4.50;;;2.30;;
61938;SDS011;47897;50.322;18.892;2022-08-21T10:42:38;4.20;;;2.30;;
61938;SDS011;47897;50.322;18.892;2022-08-21T10:45:42;6.00;;;3.00;;
61938;SDS011;47897;50.322;18.892;2022-08-21T10:56:24;6.40;;;3.00;;
61938;SDS011;47897;50.322;18.892;2022-08-21T11:01:45;6.40;;;4.30;;
61938;SDS011;47897;50.322;18.892;2022-08-21T11:06:45;6.30;;;4.40;;
61938;SDS011;47897;50.322;18.892;2022-08-21T11:09:20;7.40;;;4.30;;
61938;SDS011;47897;50.322;18.892;2022-08-21T11:17:34;5.80;;;4.40;;
61938;SDS011;47897;50.322;18.892;2022-08-21T11:20:13;6.60;;;5.00;;
61938;SDS011;47897;50.322;18.892;2022-08-21T11:23:12;7.10;;;3.90;;
61938;SDS011;47897;50.322;18.892;2022-08-21T11:25:41;6.50;;;4.60;;
61938;SDS011;47897;50.322;18.892;2022-08-21T11:28:28;5.70;;;4.60;;
61938;SDS011;47897;50.322;18.892;2022-08-21T11:31:02;7.90;;;4.80;;
61938;SDS011;47897;50.322;18.892;2022-08-21T11:33:41;5.80;;;4.20;;
61938;SDS011;47897;50.322;18.892;2022-08-21T11:39:08;5.60;;;4.20;;
61938;SDS011;47897;50.322;18.892;2022-08-21T11:41:44;5.40;;;4.70;;
61938;SDS011;47897;50.322;18.892;2022-08-21T11:44:25;6.90;;;4.50;;
61938;SDS011;47897;50.322;18.892;2022-08-21T11:52:45;5.70;;;3.90;;
61938;SDS011;47897;50.322;18.892;2022-08-21T11:55:28;5.10;;;3.70;;
61938;SDS011;47897;50.322;18.892;2022-08-21T12:00:30;5.60;;;4.20;;
61938;SDS011;47897;50.322;18.892;2022-08-21T12:03:07;5.00;;;4.20;;
61938;SDS011;47897;50.322;18.892;2022-08-21T12:05:39;5.00;;;3.40;;
61938;SDS011;47897;50.322;18.892;2022-08-21T12:08:25;4.90;;;4.20;;
61938;SDS011;47897;50.322;18.892;2022-08-21T12:11:01;6.80;;;4.60;;
61938;SDS011;47897;50.322;18.892;2022-08-21T12:13:39;4.70;;;3.80;;
61938;SDS011;47897;50.322;18.892;2022-08-21T12:16:32;5.40;;;3.90;;
61938;SDS011;47897;50.322;18.892;2022-08-21T12:19:05;6.40;;;4.40;;
61938;SDS011;47897;50.322;18.892;2022-08-21T12:24:20;6.30;;;4.60;;
61938;SDS011;47897;50.322;18.892;2022-08-21T12:27:00;6.10;;;5.00;;
61938;SDS011;47897;50.322;18.892;2022-08-21T12:29:45;7.60;;;6.00;;
61938;SDS011;47897;50.322;18.892;2022-08-21T12:34:48;8.40;;;6.60;;
61938;SDS011;47897;50.322;18.892;2022-08-21T12:40:18;8.80;;;6.80;;
61938;SDS011;47897;50.322;18.892;2022-08-21T12:42:50;7.90;;;6.20;;
61938;SDS011;47897;50.322;18.892;2022-08-21T12:45:21;7.60;;;6.20;;
61938;SDS011;47897;50.322;18.892;2022-08-21T12:47:56;15.10;;;8.70;;
61938;SDS011;47897;50.322;18.892;2022-08-21T12:50:46;23.90;;;15.30;;
61938;SDS011;47897;50.322;18.892;2022-08-21T12:53:39;20.70;;;13.90;;
61938;SDS011;47897;50.322;18.892;2022-08-21T12:56:21;30.50;;;19.00;;
61938;SDS011;47897;50.322;18.892;2022-08-21T12:58:55;27.20;;;19.30;;
61938;SDS011;47897;50.322;18.892;2022-08-21T13:01:27;32.40;;;19.20;;
61938;SDS011;47897;50.322;18.892;2022-08-21T13:03:58;39.60;;;22.40;;
61938;SDS011;47897;50.322;18.892;2022-08-21T13:06:32;49.40;;;26.80;;
61938;SDS011;47897;50.322;18.892;2022-08-21T13:09:06;61.60;;;28.60;;
61938;SDS011;47897;50.322;18.892;2022-08-21T13:11:40;40.40;;;17.50;;
61938;SDS011;47897;50.322;18.892;2022-08-21T13:14:24;31.80;;;15.90;;
61938;SDS011;47897;50.322;18.892;2022-08-21T13:17:06;23.40;;;13.90;;
61938;SDS011;47897;50.322;18.892;2022-08-21T13:19:34;16.90;;;10.10;;
61938;SDS011;47897;50.322;18.892;2022-08-21T13:22:02;21.60;;;12.40;;
61938;SDS011;47897;50.322;18.892;2022-08-21T13:24:31;17.30;;;10.50;;
61938;SDS011;47897;50.322;18.892;2022-08-21T13:27:00;12.30;;;8.40;;
61938;SDS011;47897;50.322;18.892;2022-08-21T13:29:28;12.60;;;7.90;;
61938;SDS011;47897;50.322;18.892;2022-08-21T13:32:02;16.90;;;10.30;;
61938;SDS011;47897;50.322;18.892;2022-08-21T13:34:34;14.00;;;8.10;;
61938;SDS011;47897;50.322;18.892;2022-08-21T13:37:05;12.40;;;8.80;;
61938;SDS011;47897;50.322;18.892;2022-08-21T13:39:35;12.60;;;7.20;;
61938;SDS011;47897;50.322;18.892;2022-08-21T13:42:03;12.90;;;8.60;;
61938;SDS011;47897;50.322;18.892;2022-08-21T13:47:06;11.60;;;5.80;;
61938;SDS011;47897;50.322;18.892;2022-08-21T13:49:37;12.80;;;8.40;;
61938;SDS011;47897;50.322;18.892;2022-08-21T13:55:08;19.20;;;9.50;;
61938;SDS011;47897;50.322;18.892;2022-08-21T13:57:40;18.40;;;9.90;;
61938;SDS011;47897;50.322;18.892;2022-08-21T14:00:15;19.60;;;8.90;;
61938;SDS011;47897;50.322;18.892;2022-08-21T14:02:53;18.40;;;10.20;;
61938;SDS011;47897;50.322;18.892;2022-08-21T14:05:29;19.90;;;11.20;;
61938;SDS011;47897;50.322;18.892;2022-08-21T14:08:03;19.80;;;9.70;;
61938;SDS011;47897;50.322;18.892;2022-08-21T14:10:41;20.20;;;9.80;;
61938;SDS011;47897;50.322;18.892;2022-08-21T14:13:24;21.90;;;12.00;;
61938;SDS011;47897;50.322;18.892;2022-08-21T14:15:59;20.70;;;11.80;;
61938;SDS011;47897;50.322;18.892;2022-08-21T14:18:29;18.40;;;9.90;;
61938;SDS011;47897;50.322;18.892;2022-08-21T14:21:06;15.90;;;9.30;;
61938;SDS011;47897;50.322;18.892;2022-08-21T14:23:35;21.50;;;10.90;;
61938;SDS011;47897;50.322;18.892;2022-08-21T14:26:03;19.80;;;11.50;;
61938;SDS011;47897;50.322;18.892;2022-08-21T14:28:41;17.60;;;10.10;;
61938;SDS011;47897;50.322;18.892;2022-08-21T14:31:19;20.40;;;11.20;;
61938;SDS011;47897;50.322;18.892;2022-08-21T14:33:47;18.20;;;10.40;;
61938;SDS011;47897;50.322;18.892;2022-08-21T14:36:16;19.80;;;9.90;;
61938;SDS011;47897;50.322;18.892;2022-08-21T14:38:43;16.40;;;7.60;;
61938;SDS011;47897;50.322;18.892;2022-08-21T14:41:17;16.20;;;8.60;;
61938;SDS011;47897;50.322;18.892;2022-08-21T14:43:48;19.70;;;9.50;;
61938;SDS011;47897;50.322;18.892;2022-08-21T14:46:26;18.30;;;10.40;;
61938;SDS011;47897;50.322;18.892;2022-08-21T14:48:55;18.80;;;10.50;;
61938;SDS011;47897;50.322;18.892;2022-08-21T14:51:22;19.70;;;10.20;;
61938;SDS011;47897;50.322;18.892;2022-08-21T14:53:49;19.10;;;9.60;;
61938;SDS011;47897;50.322;18.892;2022-08-21T14:56:16;16.00;;;9.20;;
61938;SDS011;47897;50.322;18.892;2022-08-21T14:58:44;21.10;;;10.00;;
61938;SDS011;47897;50.322;18.892;2022-08-21T15:01:15;16.30;;;8.90;;
61938;SDS011;47897;50.322;18.892;2022-08-21T15:03:45;15.30;;;7.70;;
61938;SDS011;47897;50.322;18.892;2022-08-21T15:06:14;11.30;;;6.30;;
61938;SDS011;47897;50.322;18.892;2022-08-21T15:08:42;17.30;;;9.50;;
61938;SDS011;47897;50.322;18.892;2022-08-21T15:11:11;18.60;;;8.70;;
61938;SDS011;47897;50.322;18.892;2022-08-21T15:13:41;16.20;;;9.30;;
61938;SDS011;47897;50.322;18.892;2022-08-21T15:16:09;12.20;;;7.80;;
61938;SDS011;47897;50.322;18.892;2022-08-21T15:18:38;14.80;;;7.10;;
61938;SDS011;47897;50.322;18.892;2022-08-21T15:21:06;19.50;;;11.20;;
61938;SDS011;47897;50.322;18.892;2022-08-21T15:23:34;18.60;;;9.80;;
61938;SDS011;47897;50.322;18.892;2022-08-21T15:26:01;21.10;;;8.20;;
61938;SDS011;47897;50.322;18.892;2022-08-21T15:28:28;13.50;;;7.50;;
61938;SDS011;47897;50.322;18.892;2022-08-21T15:30:56;22.50;;;11.40;;
61938;SDS011;47897;50.322;18.892;2022-08-21T15:33:23;18.20;;;8.70;;
61938;SDS011;47897;50.322;18.892;2022-08-21T15:35:50;15.60;;;7.90;;
61938;SDS011;47897;50.322;18.892;2022-08-21T15:38:17;17.80;;;9.30;;
61938;SDS011;47897;50.322;18.892;2022-08-21T15:40:44;25.20;;;10.10;;
61938;SDS011;47897;50.322;18.892;2022-08-21T15:43:23;21.00;;;10.20;;
61938;SDS011;47897;50.322;18.892;2022-08-21T15:45:53;17.00;;;8.30;;
61938;SDS011;47897;50.322;18.892;2022-08-21T15:48:20;18.20;;;9.90;;
61938;SDS011;47897;50.322;18.892;2022-08-21T15:50:47;16.20;;;9.20;;
61938;SDS011;47897;50.322;18.892;2022-08-21T15:53:15;19.80;;;11.20;;
61938;SDS011;47897;50.322;18.892;2022-08-21T15:55:42;13.30;;;6.40;;
61938;SDS011;47897;50.322;18.892;2022-08-21T15:58:12;18.30;;;9.10;;
61938;SDS011;47897;50.322;18.892;2022-08-21T16:00:42;19.40;;;8.00;;
61938;SDS011;47897;50.322;18.892;2022-08-21T16:03:14;15.20;;;9.40;;
61938;SDS011;47897;50.322;18.892;2022-08-21T16:05:44;17.10;;;9.40;;
61938;SDS011;47897;50.322;18.892;2022-08-21T16:08:16;17.50;;;10.00;;
61938;SDS011;47897;50.322;18.892;2022-08-21T16:10:47;20.90;;;9.70;;
61938;SDS011;47897;50.322;18.892;2022-08-21T16:13:26;16.80;;;8.60;;
61938;SDS011;47897;50.322;18.892;2022-08-21T16:18:26;16.50;;;8.90;;
61938;SDS011;47897;50.322;18.892;2022-08-21T16:20:53;22.60;;;12.20;;
61938;SDS011;47897;50.322;18.892;2022-08-21T16:23:21;20.20;;;10.90;;